Time;durP1;ratioP1;P1;durP2;ratioP2;P2;SDS_P1;SDS_P2;PMS_P1;PMS_P2;Temp;Humidity;BMP_temperature;BMP_pressure;BME280_temperature;BME280_humidity;BME280_pressure;Samples;Min_cycle;Max_cycle;Signal;HPM_P1;HPM_P2
2022/03/19 00:02:19;;;;;;;53.85;31.27;;;6.80;63.90;;;;;;5096682;28;20226;-74
2022/03/19 00:04:46;;;;;;;54.83;29.70;;;6.70;64.30;;;;;;5096432;28;20207;-75
2022/03/19 00:07:12;;;;;;;53.85;31.20;;;6.80;64.10;;;;;;5098084;28;20249;-76
2022/03/19 00:09:40;;;;;;;58.60;30.92;;;6.80;64.00;;;;;;5077374;28;20230;-75
2022/03/19 00:12:14;;;;;;;57.83;32.75;;;6.70;64.50;;;;;;5079413;28;20204;-74
2022/03/19 00:14:41;;;;;;;62.55;31.17;;;6.70;64.60;;;;;;5077591;28;20242;-75
2022/03/19 00:17:08;;;;;;;52.50;31.50;;;6.70;64.90;;;;;;5077820;28;20272;-74
2022/03/19 00:19:35;;;;;;;54.03;31.00;;;6.60;65.30;;;;;;5098290;28;20306;-75
2022/03/19 00:22:02;;;;;;;59.42;33.45;;;6.60;65.60;;;;;;5097154;28;20205;-74
2022/03/19 00:24:30;;;;;;;54.05;29.85;;;6.60;65.70;;;;;;5095160;28;20299;-74
2022/03/19 00:26:56;;;;;;;54.13;32.30;;;6.60;65.60;;;;;;5096113;28;20209;-76
2022/03/19 00:29:25;;;;;;;52.72;30.00;;;6.60;65.60;;;;;;5095635;28;20208;-74
2022/03/19 00:31:51;;;;;;;59.95;30.77;;;6.60;65.60;;;;;;5097340;28;20679;-74
2022/03/19 00:34:19;;;;;;;55.97;27.88;;;6.50;65.60;;;;;;5098058;28;20288;-74
2022/03/19 00:36:46;;;;;;;52.13;30.90;;;6.50;65.60;;;;;;5103808;28;20225;-74
2022/03/19 00:39:13;;;;;;;47.60;28.13;;;6.50;65.60;;;;;;5105228;28;20207;-75
2022/03/19 00:41:40;;;;;;;55.47;32.40;;;6.50;65.60;;;;;;5104700;28;20235;-74
2022/03/19 00:44:07;;;;;;;61.97;31.60;;;6.50;65.60;;;;;;5103470;28;20550;-76
2022/03/19 00:46:35;;;;;;;55.92;30.95;;;6.50;65.60;;;;;;5103870;28;20233;-75
2022/03/19 00:49:02;;;;;;;49.13;29.42;;;6.50;65.60;;;;;;5106744;28;20289;-75
2022/03/19 01:04:23;;;;;;;56.33;27.98;;;6.40;66.20;;;;;;5978066;22;20246;-74
2022/03/19 01:06:50;;;;;;;50.70;29.00;;;6.40;66.30;;;;;;5074103;28;20486;-74
2022/03/19 01:09:17;;;;;;;47.10;27.98;;;6.30;66.30;;;;;;5074148;28;20310;-74
2022/03/19 01:11:44;;;;;;;51.72;29.45;;;6.40;66.30;;;;;;5073562;28;20680;-75
2022/03/19 01:14:11;;;;;;;56.42;28.80;;;6.40;65.50;;;;;;5074711;28;20321;-75
2022/03/19 01:16:38;;;;;;;53.70;29.00;;;6.40;66.30;;;;;;5076924;28;20215;-74
2022/03/19 01:19:05;;;;;;;49.08;30.90;;;6.30;66.80;;;;;;5079995;28;20208;-75
2022/03/19 01:21:33;;;;;;;54.45;28.88;;;6.20;67.00;;;;;;5077672;28;20198;-75
2022/03/19 01:24:00;;;;;;;48.03;27.98;;;6.30;67.30;;;;;;5079787;28;20237;-74
2022/03/19 01:26:27;;;;;;;56.97;30.98;;;6.20;67.40;;;;;;5074861;28;20194;-76
2022/03/19 01:28:53;;;;;;;51.30;28.50;;;6.20;67.20;;;;;;5074476;28;20216;-76
2022/03/19 01:31:23;;;;;;;50.70;29.92;;;6.20;67.30;;;;;;5073108;28;20203;-74
2022/03/19 01:33:57;;;;;;;51.00;28.40;;;6.20;67.70;;;;;;5078238;28;20211;-75
2022/03/19 01:36:24;;;;;;;50.45;28.88;;;6.20;67.90;;;;;;5076772;28;20224;-74
2022/03/19 01:38:52;;;;;;;50.65;29.52;;;6.10;67.80;;;;;;5072901;28;20237;-74
2022/03/19 01:41:19;;;;;;;53.67;29.15;;;6.20;67.90;;;;;;5072629;28;20669;-75
2022/03/19 01:43:46;;;;;;;53.53;28.23;;;6.20;67.60;;;;;;5073933;28;20271;-75
2022/03/19 01:46:12;;;;;;;52.55;28.63;;;6.20;67.70;;;;;;5074452;28;20228;-75
2022/03/19 01:48:39;;;;;;;49.85;27.48;;;6.20;68.30;;;;;;5076389;28;20212;-75
2022/03/19 01:51:06;;;;;;;50.65;27.83;;;6.10;68.10;;;;;;5076602;28;20310;-74
2022/03/19 01:53:33;;;;;;;51.42;29.27;;;6.10;68.00;;;;;;5076237;28;20213;-75
2022/03/19 01:56:01;;;;;;;49.60;27.90;;;6.20;68.10;;;;;;5075279;28;20297;-75
2022/03/19 01:58:28;;;;;;;47.63;27.92;;;6.20;67.90;;;;;;5074045;28;20292;-76
2022/03/19 02:00:56;;;;;;;49.83;28.73;;;6.10;68.00;;;;;;5073772;28;20215;-75
2022/03/19 02:03:24;;;;;;;48.50;27.50;;;6.20;68.30;;;;;;5074683;28;20220;-75
2022/03/19 02:05:51;;;;;;;51.47;26.88;;;6.20;67.70;;;;;;5072786;28;20229;-74
2022/03/19 02:08:19;;;;;;;54.17;26.95;;;6.20;67.40;;;;;;5073869;28;20246;-74
2022/03/19 02:10:46;;;;;;;49.67;27.30;;;6.20;67.50;;;;;;5073724;28;20268;-74
2022/03/19 02:13:14;;;;;;;48.00;27.50;;;6.20;67.60;;;;;;5072442;28;20210;-74
2022/03/19 02:15:41;;;;;;;48.08;27.17;;;6.10;68.00;;;;;;5073551;28;20731;-73
2022/03/19 02:18:08;;;;;;;49.80;27.70;;;6.10;68.30;;;;;;5074573;28;20216;-74
2022/03/19 02:20:35;;;;;;;53.28;30.00;;;6.00;68.60;;;;;;5073982;28;20208;-74
2022/03/19 02:25:48;;;;;;;50.72;27.25;;;6.00;68.80;;;;;;5074621;28;20306;-75
2022/03/19 02:28:15;;;;;;;55.75;28.88;;;6.00;68.70;;;;;;5078229;28;20635;-74
2022/03/19 02:30:44;;;;;;;47.72;26.48;;;6.10;68.50;;;;;;5076466;28;20277;-75
2022/03/19 02:33:11;;;;;;;52.75;26.45;;;6.10;68.50;;;;;;5075955;28;20204;-75
2022/03/19 02:35:38;;;;;;;48.08;26.35;;;6.00;68.70;;;;;;5074770;28;20707;-74
2022/03/19 02:38:06;;;;;;;46.78;25.95;;;6.00;69.00;;;;;;5073484;28;20218;-74
2022/03/19 02:40:33;;;;;;;50.72;27.65;;;6.10;68.60;;;;;;5073300;28;20253;-75
2022/03/19 02:43:00;;;;;;;52.65;26.63;;;6.00;68.70;;;;;;5072324;28;20238;-75
2022/03/19 02:45:27;;;;;;;44.95;26.42;;;6.00;68.90;;;;;;5072560;28;20699;-75
2022/03/19 02:48:00;;;;;;;44.65;25.02;;;6.00;69.00;;;;;;5074047;28;20286;-74
2022/03/19 02:50:29;;;;;;;47.83;24.52;;;6.00;68.90;;;;;;5075711;28;20211;-75
2022/03/19 02:52:56;;;;;;;45.00;26.17;;;6.00;68.90;;;;;;5075755;28;20194;-74
2022/03/19 02:55:25;;;;;;;48.30;26.05;;;5.90;69.10;;;;;;5075273;28;20766;-74
2022/03/19 02:57:52;;;;;;;44.42;25.42;;;5.90;69.10;;;;;;5075492;28;20262;-74
2022/03/19 03:00:20;;;;;;;45.92;24.38;;;5.90;69.40;;;;;;5075538;28;20223;-74
2022/03/19 03:02:48;;;;;;;44.65;25.65;;;5.90;69.50;;;;;;5075374;28;20211;-74
2022/03/19 03:05:14;;;;;;;44.50;24.50;;;5.90;70.10;;;;;;5075599;28;20693;-74
2022/03/19 03:07:41;;;;;;;40.85;23.17;;;5.90;69.60;;;;;;5076691;28;20258;-74
2022/03/19 03:10:10;;;;;;;46.08;26.48;;;5.90;69.80;;;;;;5078588;28;20297;-74
2022/03/19 03:12:38;;;;;;;45.83;24.48;;;5.80;70.00;;;;;;5089412;28;20208;-74
2022/03/19 03:15:06;;;;;;;45.42;24.92;;;5.80;70.50;;;;;;5079278;28;20253;-75
2022/03/19 03:17:34;;;;;;;46.25;25.90;;;5.80;70.70;;;;;;5075901;28;20322;-74
2022/03/19 03:20:01;;;;;;;45.50;25.00;;;5.80;70.60;;;;;;5074982;28;20203;-74
2022/03/19 03:22:30;;;;;;;44.80;25.13;;;5.80;70.30;;;;;;5075769;28;20597;-74
2022/03/19 03:24:57;;;;;;;53.97;25.65;;;5.70;70.70;;;;;;5076114;28;20324;-74
2022/03/19 03:27:24;;;;;;;47.88;24.27;;;5.70;71.00;;;;;;5075577;28;20623;-74
2022/03/19 03:29:52;;;;;;;48.60;26.33;;;5.80;70.50;;;;;;5075754;28;20304;-74
2022/03/19 03:32:19;;;;;;;41.08;23.30;;;5.80;70.50;;;;;;5076924;28;20243;-75
2022/03/19 03:34:46;;;;;;;42.45;26.02;;;5.70;70.90;;;;;;5079299;28;20225;-74
2022/03/19 03:37:12;;;;;;;49.13;26.88;;;5.70;70.80;;;;;;5085167;28;20232;-74
2022/03/19 03:39:40;;;;;;;44.17;25.02;;;5.70;70.90;;;;;;5087961;28;20206;-75
2022/03/19 03:42:07;;;;;;;48.60;27.13;;;5.70;71.00;;;;;;5087651;28;20732;-75
2022/03/19 03:44:34;;;;;;;50.15;27.80;;;5.70;71.10;;;;;;5087279;28;20232;-75
2022/03/19 03:47:02;;;;;;;43.75;25.45;;;5.60;71.30;;;;;;5082580;28;20210;-74
2022/03/19 03:49:29;;;;;;;44.83;25.27;;;5.60;71.40;;;;;;5075599;28;20233;-74
2022/03/19 03:51:56;;;;;;;55.97;27.25;;;5.60;71.20;;;;;;5080094;28;20214;-75
2022/03/19 03:54:23;;;;;;;48.80;25.10;;;5.60;71.60;;;;;;5084203;28;20607;-74
2022/03/19 03:56:51;;;;;;;50.67;25.90;;;5.60;72.00;;;;;;5083918;28;20219;-74
2022/03/19 03:59:19;;;;;;;49.67;25.17;;;5.60;71.80;;;;;;5083412;28;20302;-74
2022/03/19 04:01:46;;;;;;;44.80;24.67;;;5.60;71.90;;;;;;5086131;28;20274;-75
2022/03/19 04:04:14;;;;;;;50.13;27.60;;;5.60;71.80;;;;;;5085825;28;20285;-73
2022/03/19 04:06:41;;;;;;;47.35;26.10;;;5.60;71.70;;;;;;5084009;28;20686;-73
2022/03/19 04:09:08;;;;;;;56.15;23.75;;;5.60;71.90;;;;;;5084366;28;20218;-73
2022/03/19 04:11:34;;;;;;;51.72;25.60;;;5.60;71.90;;;;;;5084643;28;20208;-73
2022/03/19 04:14:01;;;;;;;44.03;25.30;;;5.60;71.80;;;;;;5081654;28;20217;-74
2022/03/19 04:16:38;;;;;;;46.88;25.70;;;5.60;71.80;;;;;;5081005;28;20216;-74
2022/03/19 04:19:05;;;;;;;49.63;25.73;;;5.60;71.80;;;;;;5086781;28;20211;-75
2022/03/19 04:21:33;;;;;;;53.85;28.25;;;5.60;71.80;;;;;;5083202;28;20200;-75
2022/03/19 04:24:00;;;;;;;41.80;23.75;;;5.50;72.10;;;;;;5086479;28;20234;-74
2022/03/19 04:26:27;;;;;;;54.55;26.88;;;5.50;72.60;;;;;;5096349;28;20215;-75
2022/03/19 04:28:57;;;;;;;43.67;25.42;;;5.50;72.90;;;;;;5095241;28;20213;-75
2022/03/19 04:31:24;;;;;;;42.45;26.15;;;5.50;72.80;;;;;;5088860;28;20226;-74
2022/03/19 04:33:51;;;;;;;48.00;25.38;;;5.50;73.40;;;;;;5091657;28;20220;-75
2022/03/19 04:36:35;;;;;;;43.70;24.45;;;5.40;73.30;;;;;;5090609;28;20271;-75
2022/03/19 04:39:06;;;;;;;42.25;23.80;;;5.40;73.30;;;;;;5083033;28;20202;-75
2022/03/19 04:41:34;;;;;;;48.83;25.88;;;5.40;73.30;;;;;;5076849;28;20670;-74
2022/03/19 04:44:02;;;;;;;42.28;26.33;;;5.50;73.40;;;;;;5076365;28;20219;-74
2022/03/19 04:46:29;;;;;;;47.25;25.60;;;5.50;73.30;;;;;;5075425;28;20300;-74
2022/03/19 04:48:56;;;;;;;46.50;25.75;;;5.40;73.30;;;;;;5075488;28;20261;-74
2022/03/19 04:51:28;;;;;;;40.88;23.08;;;5.40;74.00;;;;;;5075401;28;20308;-73
2022/03/19 04:53:55;;;;;;;43.03;25.33;;;5.40;73.30;;;;;;5075544;28;20229;-74
2022/03/19 04:56:25;;;;;;;56.10;26.30;;;5.40;73.40;;;;;;5075248;28;20213;-74
2022/03/19 04:58:54;;;;;;;50.58;24.88;;;5.40;73.30;;;;;;5073303;28;20222;-74
2022/03/19 05:01:22;;;;;;;45.03;25.50;;;5.40;73.30;;;;;;5074043;28;20709;-74
2022/03/19 05:03:49;;;;;;;42.78;24.58;;;5.40;73.30;;;;;;5073654;28;20252;-74
2022/03/19 05:06:16;;;;;;;44.40;25.00;;;5.40;73.30;;;;;;5073822;28;20218;-74
2022/03/19 05:08:43;;;;;;;41.72;23.63;;;5.40;73.30;;;;;;5072932;28;20201;-74
2022/03/19 05:11:17;;;;;;;49.35;27.02;;;5.30;74.00;;;;;;5074124;28;20220;-74
2022/03/19 05:13:48;;;;;;;51.97;27.17;;;5.30;73.30;;;;;;5073563;28;20589;-75
2022/03/19 05:16:15;;;;;;;49.92;26.08;;;5.40;73.30;;;;;;5074052;28;20231;-74
2022/03/19 05:18:42;;;;;;;55.65;27.30;;;5.30;73.30;;;;;;5073516;28;20215;-74
2022/03/19 05:21:12;;;;;;;44.15;25.63;;;5.30;73.30;;;;;;5073483;28;20213;-75
2022/03/19 05:23:39;;;;;;;46.72;24.83;;;5.30;73.30;;;;;;5074846;28;20251;-74
2022/03/19 05:26:06;;;;;;;46.70;27.05;;;5.40;73.30;;;;;;5074330;28;20606;-74
2022/03/19 05:28:33;;;;;;;51.40;26.05;;;5.30;73.30;;;;;;5073731;28;20672;-73
2022/03/19 05:31:02;;;;;;;48.58;26.80;;;5.20;73.20;;;;;;5073170;28;20289;-75
2022/03/19 05:36:10;;;;;;;53.55;28.63;;;5.30;73.30;;;;;;5072362;28;20256;-74
2022/03/19 05:38:38;;;;;;;42.92;25.95;;;5.20;73.20;;;;;;5073765;28;20331;-75
2022/03/19 05:41:05;;;;;;;50.60;26.20;;;5.30;73.30;;;;;;5073269;28;20207;-74
2022/03/19 05:43:32;;;;;;;49.85;25.80;;;5.20;73.20;;;;;;5073274;28;20210;-74
2022/03/19 05:45:59;;;;;;;53.67;26.10;;;5.20;73.20;;;;;;5073494;28;20231;-75
2022/03/19 05:48:27;;;;;;;50.70;25.13;;;5.30;73.90;;;;;;5074331;28;20231;-75
2022/03/19 05:50:54;;;;;;;53.50;27.90;;;5.30;73.30;;;;;;5082358;28;20198;-74
2022/03/19 05:53:21;;;;;;;40.95;23.90;;;5.30;73.30;;;;;;5088723;28;20219;-74
2022/03/19 05:55:47;;;;;;;45.97;25.60;;;5.20;73.20;;;;;;5072774;28;20310;-74
2022/03/19 05:58:14;;;;;;;51.60;26.73;;;5.20;73.20;;;;;;5073931;28;20231;-75
2022/03/19 06:00:41;;;;;;;49.22;26.27;;;5.20;73.20;;;;;;5078422;28;20211;-74
2022/03/19 06:03:08;;;;;;;49.63;27.13;;;5.30;73.30;;;;;;5089451;28;20219;-74
2022/03/19 06:05:36;;;;;;;52.35;27.75;;;5.30;73.30;;;;;;5091465;28;20257;-74
2022/03/19 06:08:03;;;;;;;50.40;26.55;;;5.30;73.30;;;;;;5088552;28;20616;-74
2022/03/19 06:10:30;;;;;;;50.50;25.85;;;5.20;73.20;;;;;;5091911;28;20271;-74
2022/03/19 06:12:57;;;;;;;46.58;25.95;;;5.20;73.20;;;;;;5081608;28;20658;-76
2022/03/19 06:15:24;;;;;;;47.60;26.08;;;5.30;73.30;;;;;;5074019;28;20236;-75
2022/03/19 06:17:51;;;;;;;49.78;25.77;;;5.30;73.30;;;;;;5073941;28;20220;-75
2022/03/19 06:20:22;;;;;;;47.22;27.60;;;5.30;73.90;;;;;;5073611;28;20210;-75
2022/03/19 06:22:50;;;;;;;45.00;26.25;;;5.30;73.30;;;;;;5076900;28;20207;-75
2022/03/19 06:25:17;;;;;;;45.03;25.20;;;5.40;72.60;;;;;;5077504;28;20309;-74
2022/03/19 06:27:44;;;;;;;48.95;27.55;;;5.40;72.10;;;;;;5076758;28;20205;-75
2022/03/19 06:30:11;;;;;;;44.70;25.98;;;5.50;71.10;;;;;;5076214;28;20202;-75
2022/03/19 06:32:41;;;;;;;44.65;26.23;;;5.50;70.70;;;;;;5073148;28;20220;-74
2022/03/19 06:35:09;;;;;;;40.13;24.67;;;5.50;70.50;;;;;;5076620;28;20231;-75
2022/03/19 06:37:35;;;;;;;44.40;23.92;;;5.60;69.90;;;;;;5077082;28;20339;-75
2022/03/19 06:40:06;;;;;;;41.83;23.27;;;5.60;69.50;;;;;;5077242;28;20293;-74
2022/03/19 06:42:33;;;;;;;45.85;23.55;;;5.60;68.60;;;;;;5078012;28;20464;-75
2022/03/19 06:45:00;;;;;;;39.30;23.90;;;5.70;68.50;;;;;;5077989;28;20591;-75
2022/03/19 06:47:27;;;;;;;47.90;25.35;;;5.70;67.70;;;;;;5082114;28;20307;-75
2022/03/19 06:49:54;;;;;;;43.00;25.55;;;5.80;67.50;;;;;;5077694;28;20299;-74
2022/03/19 06:52:22;;;;;;;41.95;24.15;;;5.80;66.40;;;;;;5077269;28;20644;-74
2022/03/19 06:54:49;;;;;;;41.65;22.23;;;5.80;66.10;;;;;;5077075;28;20220;-74
2022/03/19 06:57:17;;;;;;;47.15;24.48;;;5.90;65.60;;;;;;5076482;28;20204;-75
2022/03/19 06:59:44;;;;;;;44.35;25.55;;;5.90;65.00;;;;;;5075618;28;20309;-76
2022/03/19 07:02:11;;;;;;;35.85;21.00;;;6.00;65.10;;;;;;5076406;28;20624;-74
2022/03/19 07:04:38;;;;;;;37.65;22.65;;;6.10;65.20;;;;;;5075786;28;20235;-75
2022/03/19 07:07:05;;;;;;;41.85;23.80;;;6.10;64.70;;;;;;5076509;28;20202;-74
2022/03/19 07:09:32;;;;;;;38.03;23.65;;;6.10;64.10;;;;;;5076219;28;20673;-75
2022/03/19 07:11:58;;;;;;;43.33;22.75;;;6.20;63.60;;;;;;5076495;28;20226;-75
2022/03/19 07:14:27;;;;;;;37.25;23.20;;;6.20;62.90;;;;;;5076671;28;20227;-75
2022/03/19 07:16:55;;;;;;;39.88;22.30;;;6.30;62.70;;;;;;5085957;28;20659;-75
2022/03/19 07:19:22;;;;;;;39.28;21.67;;;6.40;62.10;;;;;;5083412;28;20233;-74
2022/03/19 07:21:49;;;;;;;42.40;23.35;;;6.50;62.10;;;;;;5080478;28;20271;-74
2022/03/19 07:24:16;;;;;;;35.53;22.05;;;6.50;61.50;;;;;;5076299;28;20313;-74
2022/03/19 07:26:43;;;;;;;39.47;23.40;;;6.50;61.10;;;;;;5076024;28;20299;-75
2022/03/19 07:29:10;;;;;;;46.58;23.40;;;6.60;61.00;;;;;;5075289;28;20200;-74
2022/03/19 07:31:38;;;;;;;36.35;21.20;;;6.70;60.50;;;;;;5075986;28;20208;-75
2022/03/19 07:34:05;;;;;;;35.33;20.88;;;6.70;59.90;;;;;;5074601;28;20198;-74
2022/03/19 07:36:32;;;;;;;40.78;23.58;;;6.80;59.50;;;;;;5076084;28;20214;-74
2022/03/19 07:38:59;;;;;;;42.25;23.08;;;6.80;59.30;;;;;;5076262;28;20308;-75
2022/03/19 07:44:10;;;;;;;35.67;20.52;;;6.90;58.60;;;;;;5075318;28;20597;-73
2022/03/19 07:46:41;;;;;;;31.80;20.15;;;7.00;58.10;;;;;;5074714;28;20287;-73
2022/03/19 07:49:10;;;;;;;35.75;20.95;;;7.00;57.50;;;;;;5075241;28;20708;-74
2022/03/19 07:51:37;;;;;;;34.58;20.17;;;7.10;57.10;;;;;;5075126;28;20201;-75
2022/03/19 07:54:04;;;;;;;32.50;19.50;;;7.10;57.10;;;;;;5075701;28;20205;-74
2022/03/19 07:56:31;;;;;;;41.90;21.70;;;7.20;57.00;;;;;;5075693;28;20725;-75
2022/03/19 07:58:57;;;;;;;41.17;20.65;;;7.30;55.80;;;;;;5077203;28;20234;-74
2022/03/19 08:01:24;;;;;;;30.98;19.48;;;7.30;56.00;;;;;;5077842;28;20320;-73
2022/03/19 08:03:52;;;;;;;37.70;21.17;;;7.30;55.40;;;;;;5075863;28;20775;-75
2022/03/19 08:06:20;;;;;;;33.33;19.42;;;7.40;54.90;;;;;;5075227;28;20212;-74
2022/03/19 08:08:47;;;;;;;32.10;18.48;;;7.50;53.90;;;;;;5075265;28;20206;-73
2022/03/19 08:11:14;;;;;;;28.38;18.17;;;7.50;53.90;;;;;;5075668;28;20212;-73
2022/03/19 08:13:41;;;;;;;32.53;19.73;;;7.60;53.30;;;;;;5074503;28;20566;-74
2022/03/19 08:16:09;;;;;;;27.10;18.08;;;7.70;52.80;;;;;;5075252;28;20226;-73
2022/03/19 08:18:35;;;;;;;31.45;19.75;;;7.60;52.10;;;;;;5075445;28;20303;-73
2022/03/19 08:21:04;;;;;;;37.92;19.85;;;7.70;52.10;;;;;;5076289;28;20295;-73
2022/03/19 08:23:31;;;;;;;29.60;19.60;;;7.80;51.10;;;;;;5082175;28;20197;-75
2022/03/19 08:25:57;;;;;;;27.67;18.20;;;7.90;51.10;;;;;;5077073;28;20225;-73
2022/03/19 08:28:24;;;;;;;26.13;16.60;;;7.90;51.40;;;;;;5082279;28;20202;-73
2022/03/19 08:30:51;;;;;;;37.08;22.00;;;8.00;49.90;;;;;;5085752;28;20619;-75
2022/03/19 08:33:18;;;;;;;30.50;20.90;;;8.10;48.60;;;;;;5077633;28;20244;-73
2022/03/19 08:35:45;;;;;;;30.20;19.75;;;8.20;48.70;;;;;;5074119;28;20292;-74
2022/03/19 08:40:58;;;;;;;30.58;20.98;;;8.20;46.90;;;;;;5073234;28;20213;-75
2022/03/19 08:43:25;;;;;;;32.78;20.70;;;8.30;46.40;;;;;;5073881;28;20580;-73
2022/03/19 08:45:52;;;;;;;28.90;20.75;;;8.30;46.40;;;;;;5071426;28;20233;-75
2022/03/19 08:48:19;;;;;;;31.08;19.45;;;8.40;46.70;;;;;;5068137;28;20671;-74
2022/03/19 08:50:45;;;;;;;33.90;21.30;;;8.40;46.70;;;;;;5074191;28;20309;-74
2022/03/19 08:53:14;;;;;;;31.48;20.70;;;8.40;46.10;;;;;;5073992;28;20213;-74
2022/03/19 08:55:41;;;;;;;35.63;21.48;;;8.60;45.60;;;;;;5074403;28;20232;-75
2022/03/19 08:58:08;;;;;;;34.50;21.63;;;8.70;45.30;;;;;;5074182;28;20213;-73
2022/03/19 09:00:37;;;;;;;35.83;19.50;;;8.80;45.60;;;;;;5073046;28;20220;-75
2022/03/19 09:03:03;;;;;;;28.95;20.00;;;8.80;45.20;;;;;;5073051;28;20225;-76
2022/03/19 09:05:32;;;;;;;32.35;20.30;;;8.80;44.70;;;;;;5073144;28;20261;-76
2022/03/19 09:07:59;;;;;;;33.20;21.30;;;8.70;44.70;;;;;;5071162;28;20671;-73
2022/03/19 09:10:27;;;;;;;35.63;21.55;;;8.80;44.30;;;;;;5060617;28;20210;-75
2022/03/19 09:12:55;;;;;;;31.88;21.15;;;8.90;44.60;;;;;;5073251;28;20216;-75
2022/03/19 09:15:22;;;;;;;33.60;20.80;;;9.10;44.60;;;;;;5073573;28;20226;-75
2022/03/19 09:17:49;;;;;;;31.48;20.52;;;9.20;43.40;;;;;;5067631;28;20206;-73
2022/03/19 09:20:16;;;;;;;32.92;19.85;;;9.20;42.80;;;;;;5074700;28;20261;-75
2022/03/19 09:22:43;;;;;;;36.00;22.52;;;9.10;42.60;;;;;;5061489;28;20231;-73
2022/03/19 09:25:10;;;;;;;35.65;22.05;;;9.20;42.70;;;;;;5086718;28;20241;-73
2022/03/19 09:27:39;;;;;;;34.85;22.65;;;9.20;42.70;;;;;;5083266;28;20629;-76
2022/03/19 09:30:09;;;;;;;32.92;21.65;;;9.40;42.40;;;;;;5073816;28;20728;-74
2022/03/19 09:32:36;;;;;;;29.77;20.48;;;9.40;41.90;;;;;;5068438;28;20202;-75
2022/03/19 09:35:04;;;;;;;36.92;24.05;;;9.40;42.40;;;;;;5084450;28;20218;-73
2022/03/19 09:37:31;;;;;;;36.88;23.25;;;9.50;42.50;;;;;;5064216;28;20617;-74
2022/03/19 09:39:58;;;;;;;37.20;21.98;;;9.80;41.00;;;;;;5075037;28;20226;-72
2022/03/19 09:42:27;;;;;;;37.95;23.55;;;9.70;40.20;;;;;;5075038;28;20225;-74
2022/03/19 09:44:56;;;;;;;38.53;24.67;;;9.70;40.20;;;;;;5076115;28;20236;-74
2022/03/19 09:47:25;;;;;;;36.92;23.73;;;9.80;40.30;;;;;;5074647;28;20198;-74
2022/03/19 09:49:52;;;;;;;31.02;23.20;;;9.90;38.60;;;;;;5073408;28;20264;-74
2022/03/19 09:52:21;;;;;;;39.45;24.40;;;9.80;39.10;;;;;;5080086;28;20214;-74
2022/03/19 09:54:48;;;;;;;33.28;22.73;;;9.90;38.60;;;;;;5073547;28;20277;-73
2022/03/19 09:57:15;;;;;;;44.70;23.77;;;9.90;38.60;;;;;;5072040;28;20209;-74
2022/03/19 09:59:42;;;;;;;35.58;23.83;;;9.80;38.70;;;;;;5073101;28;20698;-73
2022/03/19 10:02:11;;;;;;;33.55;22.63;;;9.90;38.50;;;;;;5073743;28;20229;-73
2022/03/19 10:04:40;;;;;;;38.05;26.02;;;10.10;37.10;;;;;;5073428;28;20238;-74
2022/03/19 10:09:54;;;;;;;46.05;25.63;;;10.00;37.50;;;;;;5073354;28;20248;-73
2022/03/19 10:12:23;;;;;;;39.67;25.00;;;10.10;38.50;;;;;;5073597;28;20666;-73
2022/03/19 10:14:53;;;;;;;42.15;26.55;;;10.40;37.60;;;;;;5073357;28;20234;-74
2022/03/19 10:17:32;;;;;;;44.85;27.35;;;10.40;36.80;;;;;;5073914;28;20205;-74
2022/03/19 10:20:02;;;;;;;36.05;25.70;;;10.30;37.00;;;;;;5073470;28;20316;-74
2022/03/19 10:22:29;;;;;;;41.25;27.25;;;10.60;36.90;;;;;;5073678;28;20202;-74
2022/03/19 10:25:01;;;;;;;41.30;26.75;;;10.70;36.30;;;;;;5073803;28;20221;-73
2022/03/19 10:27:33;;;;;;;35.67;25.02;;;10.70;36.70;;;;;;5072933;28;20292;-73
2022/03/19 10:30:10;;;;;;;39.53;27.80;;;10.80;36.10;;;;;;5074511;28;20563;-75
2022/03/19 10:32:40;;;;;;;45.47;27.55;;;10.90;35.40;;;;;;5073519;28;20202;-74
2022/03/19 10:35:24;;;;;;;42.20;26.98;;;10.80;35.80;;;;;;5073909;28;20233;-74
2022/03/19 10:37:51;;;;;;;43.58;27.90;;;10.90;35.70;;;;;;5074482;28;20190;-75
2022/03/19 10:40:19;;;;;;;36.92;25.63;;;11.30;34.80;;;;;;5076459;28;20303;-77
2022/03/19 10:42:46;;;;;;;43.70;28.30;;;11.10;34.30;;;;;;5078786;28;20271;-74
2022/03/19 10:45:21;;;;;;;42.42;29.05;;;11.00;33.60;;;;;;5079035;28;20260;-77
2022/03/19 10:47:49;;;;;;;44.30;29.02;;;11.00;33.70;;;;;;5086601;28;20209;-75
2022/03/19 10:50:19;;;;;;;43.05;27.48;;;11.20;33.60;;;;;;5082401;28;20202;-73
2022/03/19 10:52:47;;;;;;;42.58;27.10;;;11.30;33.00;;;;;;5074021;28;20284;-73
2022/03/19 10:55:14;;;;;;;40.25;27.85;;;11.40;30.80;;;;;;5075711;28;20729;-74
2022/03/19 10:57:41;;;;;;;39.15;25.08;;;11.10;30.50;;;;;;5075243;28;20273;-74
2022/03/19 11:00:09;;;;;;;37.72;25.55;;;11.10;30.50;;;;;;5074283;28;20229;-74
2022/03/19 11:02:41;;;;;;;38.28;25.90;;;11.10;30.50;;;;;;5074107;28;20209;-74
2022/03/19 11:05:11;;;;;;;43.00;27.10;;;11.20;30.60;;;;;;5075583;28;20253;-75
2022/03/19 11:07:42;;;;;;;40.03;25.77;;;11.40;30.70;;;;;;5078984;28;20198;-74
2022/03/19 11:10:10;;;;;;;41.42;28.10;;;11.60;30.90;;;;;;5089146;28;20229;-75
2022/03/19 11:12:40;;;;;;;38.15;24.80;;;11.40;30.70;;;;;;5080389;28;20241;-74
2022/03/19 11:15:10;;;;;;;35.38;23.65;;;11.60;30.00;;;;;;5076742;28;20240;-76
2022/03/19 11:17:39;;;;;;;34.33;23.25;;;11.70;29.90;;;;;;5076517;28;20588;-78
2022/03/19 11:20:10;;;;;;;31.00;20.88;;;11.80;27.50;;;;;;5076346;28;20272;-76
2022/03/19 11:22:40;;;;;;;33.28;22.10;;;11.50;27.80;;;;;;5076442;28;20265;-74
2022/03/19 11:25:12;;;;;;;31.90;21.80;;;11.80;28.00;;;;;;5076133;28;20226;-74
2022/03/19 11:27:42;;;;;;;35.60;23.20;;;11.80;27.30;;;;;;5076466;28;20208;-74
2022/03/19 11:30:22;;;;;;;33.83;22.23;;;11.60;28.10;;;;;;5075690;28;20213;-74
2022/03/19 11:33:05;;;;;;;34.28;22.20;;;11.80;28.60;;;;;;5075745;28;20281;-75
2022/03/19 11:35:34;;;;;;;26.92;19.17;;;11.80;28.30;;;;;;5076045;28;20268;-75
2022/03/19 11:38:04;;;;;;;28.73;18.02;;;11.80;27.70;;;;;;5075266;28;20637;-74
2022/03/19 11:40:33;;;;;;;22.65;16.05;;;11.90;26.70;;;;;;5080527;28;20293;-74
2022/03/19 11:43:01;;;;;;;22.55;16.13;;;12.10;25.80;;;;;;5078486;28;20255;-75
2022/03/19 11:45:38;;;;;;;16.52;12.13;;;12.10;25.40;;;;;;5076293;28;20218;-76
2022/03/19 11:48:05;;;;;;;16.80;11.23;;;11.90;23.80;;;;;;5076462;28;20216;-75
2022/03/19 11:50:34;;;;;;;14.27;10.35;;;12.10;24.50;;;;;;5076345;28;20202;-75
2022/03/19 11:53:06;;;;;;;16.13;11.77;;;12.20;24.10;;;;;;5075604;28;20202;-77
2022/03/19 11:55:40;;;;;;;19.40;11.98;;;12.30;24.00;;;;;;5075294;28;20265;-76
2022/03/19 11:58:14;;;;;;;14.85;10.50;;;12.40;23.40;;;;;;5075314;28;20293;-76
2022/03/19 12:00:41;;;;;;;16.65;10.65;;;12.20;23.30;;;;;;5075280;28;20263;-76
2022/03/19 12:03:10;;;;;;;18.42;11.30;;;12.20;24.30;;;;;;5075334;28;20305;-76
2022/03/19 12:05:40;;;;;;;15.63;10.80;;;12.40;24.80;;;;;;5075082;28;20317;-76
2022/03/19 12:08:10;;;;;;;14.35;9.70;;;12.60;24.70;;;;;;5079978;28;20550;-76
2022/03/19 12:10:54;;;;;;;12.57;8.57;;;12.70;23.60;;;;;;5080546;28;20202;-77
2022/03/19 12:13:42;;;;;;;13.48;8.75;;;12.60;23.60;;;;;;5079094;28;20305;-77
2022/03/19 12:16:12;;;;;;;12.30;8.38;;;12.50;23.50;;;;;;5076556;28;20283;-78
2022/03/19 12:18:48;;;;;;;13.40;9.23;;;12.50;23.80;;;;;;5075058;28;20241;-75
2022/03/19 12:21:21;;;;;;;24.40;9.02;;;12.60;23.60;;;;;;5073361;28;20218;-77
2022/03/19 12:23:55;;;;;;;12.68;8.00;;;12.80;23.00;;;;;;5074156;28;20685;-77
2022/03/19 12:26:24;;;;;;;13.70;9.95;;;12.80;23.70;;;;;;5073362;28;20185;-77
2022/03/19 12:28:58;;;;;;;12.07;7.75;;;12.80;23.30;;;;;;5075357;28;20289;-75
2022/03/19 12:31:31;;;;;;;13.07;7.50;;;12.50;23.40;;;;;;5075571;28;20208;-76
2022/03/19 12:33:58;;;;;;;14.10;7.15;;;12.30;21.70;;;;;;5075647;28;20260;-77
2022/03/19 12:36:26;;;;;;;10.63;6.60;;;12.60;21.10;;;;;;5076368;28;20723;-76
2022/03/19 12:38:54;;;;;;;9.57;6.60;;;12.50;20.90;;;;;;5075393;28;20206;-75
2022/03/19 12:41:27;;;;;;;9.80;6.88;;;12.50;21.60;;;;;;5075186;28;20226;-76
2022/03/19 12:43:55;;;;;;;12.95;7.32;;;12.60;22.20;;;;;;5075280;28;20220;-76
2022/03/19 12:46:24;;;;;;;11.52;7.63;;;12.40;23.40;;;;;;5075274;28;20202;-77
2022/03/19 12:48:51;;;;;;;11.05;7.63;;;12.70;23.10;;;;;;5075343;28;20615;-76
2022/03/19 12:51:27;;;;;;;11.82;7.25;;;12.80;22.80;;;;;;5075124;28;20285;-76
2022/03/19 12:53:54;;;;;;;11.88;6.68;;;12.60;23.60;;;;;;5076715;28;20681;-76
2022/03/19 12:56:22;;;;;;;11.18;6.53;;;12.90;23.30;;;;;;5077315;28;20213;-76
2022/03/19 12:58:51;;;;;;;9.25;5.55;;;12.90;22.80;;;;;;5077658;28;20289;-77
2022/03/19 13:01:20;;;;;;;10.55;5.93;;;13.30;21.20;;;;;;5079078;28;20214;-77
2022/03/19 13:03:47;;;;;;;9.35;5.85;;;13.20;21.30;;;;;;5080247;28;20214;-75
2022/03/19 13:06:16;;;;;;;9.98;5.40;;;12.90;20.10;;;;;;5079610;28;20244;-77
2022/03/19 13:08:49;;;;;;;10.13;6.53;;;13.20;20.50;;;;;;5082699;28;20209;-76